sensor_id;sensor_type;location;lat;lon;timestamp;temperature;humidity
26537;DHT22;14204;51.262;5.488;2022-08-06T00:01:38;16.70;99.90
26537;DHT22;14204;51.262;5.488;2022-08-06T00:04:03;16.60;99.90
26537;DHT22;14204;51.262;5.488;2022-08-06T00:06:29;16.60;99.90
26537;DHT22;14204;51.262;5.488;2022-08-06T00:08:55;16.50;99.90
26537;DHT22;14204;51.262;5.488;2022-08-06T00:11:21;16.50;99.90
26537;DHT22;14204;51.262;5.488;2022-08-06T00:13:46;16.50;99.90
26537;DHT22;14204;51.262;5.488;2022-08-06T00:16:12;16.50;99.90
26537;DHT22;14204;51.262;5.488;2022-08-06T00:18:37;16.40;99.90
26537;DHT22;14204;51.262;5.488;2022-08-06T00:21:03;16.40;99.90
26537;DHT22;14204;51.262;5.488;2022-08-06T00:23:29;16.40;99.90
26537;DHT22;14204;51.262;5.488;2022-08-06T00:25:54;16.40;99.90
26537;DHT22;14204;51.262;5.488;2022-08-06T00:28:25;16.30;99.90
26537;DHT22;14204;51.262;5.488;2022-08-06T00:30:51;16.30;99.90
26537;DHT22;14204;51.262;5.488;2022-08-06T00:33:17;16.30;99.90
26537;DHT22;14204;51.262;5.488;2022-08-06T00:35:43;16.20;99.90
26537;DHT22;14204;51.262;5.488;2022-08-06T00:38:09;16.20;99.90
26537;DHT22;14204;51.262;5.488;2022-08-06T00:40:35;16.20;99.90
26537;DHT22;14204;51.262;5.488;2022-08-06T00:43:02;16.20;99.90
26537;DHT22;14204;51.262;5.488;2022-08-06T00:45:32;16.10;99.90
26537;DHT22;14204;51.262;5.488;2022-08-06T00:47:59;16.10;99.90
26537;DHT22;14204;51.262;5.488;2022-08-06T00:50:25;16.10;99.90
26537;DHT22;14204;51.262;5.488;2022-08-06T00:52:51;16.00;99.90
26537;DHT22;14204;51.262;5.488;2022-08-06T00:55:17;16.00;99.90
26537;DHT22;14204;51.262;5.488;2022-08-06T00:57:43;16.00;99.90
26537;DHT22;14204;51.262;5.488;2022-08-06T01:00:09;15.90;99.90
26537;DHT22;14204;51.262;5.488;2022-08-06T01:02:35;15.90;99.90
26537;DHT22;14204;51.262;5.488;2022-08-06T01:05:01;15.90;99.90
26537;DHT22;14204;51.262;5.488;2022-08-06T01:07:27;15.90;99.90
26537;DHT22;14204;51.262;5.488;2022-08-06T01:09:53;15.90;99.90
26537;DHT22;14204;51.262;5.488;2022-08-06T01:12:18;15.80;99.90
26537;DHT22;14204;51.262;5.488;2022-08-06T01:14:44;15.80;99.90
26537;DHT22;14204;51.262;5.488;2022-08-06T01:17:40;15.80;99.90
26537;DHT22;14204;51.262;5.488;2022-08-06T01:23:06;15.70;99.90
26537;DHT22;14204;51.262;5.488;2022-08-06T01:29:04;15.70;99.90
26537;DHT22;14204;51.262;5.488;2022-08-06T01:31:55;15.70;99.90
26537;DHT22;14204;51.262;5.488;2022-08-06T01:34:30;15.60;99.90
26537;DHT22;14204;51.262;5.488;2022-08-06T01:37:08;15.60;99.90
26537;DHT22;14204;51.262;5.488;2022-08-06T01:39:35;15.60;99.90
26537;DHT22;14204;51.262;5.488;2022-08-06T01:42:03;15.60;99.90
26537;DHT22;14204;51.262;5.488;2022-08-06T01:44:33;15.60;99.90
26537;DHT22;14204;51.262;5.488;2022-08-06T01:47:03;15.50;99.90
26537;DHT22;14204;51.262;5.488;2022-08-06T01:49:34;15.50;99.90
26537;DHT22;14204;51.262;5.488;2022-08-06T01:52:02;15.50;99.90
26537;DHT22;14204;51.262;5.488;2022-08-06T01:54:29;15.40;99.90
26537;DHT22;14204;51.262;5.488;2022-08-06T01:56:57;15.30;99.90
26537;DHT22;14204;51.262;5.488;2022-08-06T01:59:32;15.30;99.90
26537;DHT22;14204;51.262;5.488;2022-08-06T02:02:00;15.40;99.90
26537;DHT22;14204;51.262;5.488;2022-08-06T02:04:30;15.30;99.90
26537;DHT22;14204;51.262;5.488;2022-08-06T02:06:56;15.30;99.90
26537;DHT22;14204;51.262;5.488;2022-08-06T02:09:23;15.30;99.90
26537;DHT22;14204;51.262;5.488;2022-08-06T02:11:55;15.20;99.90
26537;DHT22;14204;51.262;5.488;2022-08-06T02:14:23;15.20;99.90
26537;DHT22;14204;51.262;5.488;2022-08-06T02:16:50;15.20;99.90
26537;DHT22;14204;51.262;5.488;2022-08-06T02:19:19;15.20;99.90
26537;DHT22;14204;51.262;5.488;2022-08-06T02:21:47;15.20;99.90
26537;DHT22;14204;51.262;5.488;2022-08-06T02:24:14;15.10;99.90
26537;DHT22;14204;51.262;5.488;2022-08-06T02:26:41;15.10;99.90
26537;DHT22;14204;51.262;5.488;2022-08-06T02:29:11;15.00;99.90
26537;DHT22;14204;51.262;5.488;2022-08-06T02:31:39;15.00;99.90
26537;DHT22;14204;51.262;5.488;2022-08-06T02:34:05;15.00;99.90
26537;DHT22;14204;51.262;5.488;2022-08-06T02:36:41;15.00;99.90
26537;DHT22;14204;51.262;5.488;2022-08-06T02:41:50;15.00;99.90
26537;DHT22;14204;51.262;5.488;2022-08-06T02:50:04;14.80;99.90
26537;DHT22;14204;51.262;5.488;2022-08-06T02:52:47;14.80;99.90
26537;DHT22;14204;51.262;5.488;2022-08-06T02:55:19;14.80;99.90
26537;DHT22;14204;51.262;5.488;2022-08-06T02:57:51;14.70;99.90
26537;DHT22;14204;51.262;5.488;2022-08-06T03:00:18;14.70;99.90
26537;DHT22;14204;51.262;5.488;2022-08-06T03:02:45;14.70;99.90
26537;DHT22;14204;51.262;5.488;2022-08-06T03:05:18;14.70;99.90
26537;DHT22;14204;51.262;5.488;2022-08-06T03:07:47;14.70;99.90
26537;DHT22;14204;51.262;5.488;2022-08-06T03:10:14;14.70;99.90
26537;DHT22;14204;51.262;5.488;2022-08-06T03:12:43;14.70;99.90
26537;DHT22;14204;51.262;5.488;2022-08-06T03:15:10;14.70;99.90
26537;DHT22;14204;51.262;5.488;2022-08-06T03:17:37;14.70;99.90
26537;DHT22;14204;51.262;5.488;2022-08-06T03:20:04;14.60;99.90
26537;DHT22;14204;51.262;5.488;2022-08-06T03:22:32;14.60;99.90
26537;DHT22;14204;51.262;5.488;2022-08-06T03:24:59;14.60;99.90
26537;DHT22;14204;51.262;5.488;2022-08-06T03:27:26;14.50;99.90
26537;DHT22;14204;51.262;5.488;2022-08-06T03:29:53;14.50;99.90
26537;DHT22;14204;51.262;5.488;2022-08-06T03:32:20;14.50;99.90
26537;DHT22;14204;51.262;5.488;2022-08-06T03:34:47;14.50;99.90
26537;DHT22;14204;51.262;5.488;2022-08-06T03:37:13;14.50;99.90
26537;DHT22;14204;51.262;5.488;2022-08-06T03:39:43;14.50;99.90
26537;DHT22;14204;51.262;5.488;2022-08-06T03:42:09;14.50;99.90
26537;DHT22;14204;51.262;5.488;2022-08-06T03:44:35;14.40;99.90
26537;DHT22;14204;51.262;5.488;2022-08-06T03:47:21;14.50;99.90
26537;DHT22;14204;51.262;5.488;2022-08-06T03:49:57;14.40;99.90
26537;DHT22;14204;51.262;5.488;2022-08-06T03:52:28;14.40;99.90
26537;DHT22;14204;51.262;5.488;2022-08-06T03:54:58;14.40;99.90
26537;DHT22;14204;51.262;5.488;2022-08-06T03:57:32;14.40;99.90
26537;DHT22;14204;51.262;5.488;2022-08-06T04:00:00;14.30;99.90
26537;DHT22;14204;51.262;5.488;2022-08-06T04:02:37;14.30;99.90
26537;DHT22;14204;51.262;5.488;2022-08-06T04:05:04;14.30;99.90
26537;DHT22;14204;51.262;5.488;2022-08-06T04:07:31;14.30;99.90
26537;DHT22;14204;51.262;5.488;2022-08-06T04:09:59;14.30;99.90
26537;DHT22;14204;51.262;5.488;2022-08-06T04:12:25;14.20;99.90
26537;DHT22;14204;51.262;5.488;2022-08-06T04:14:52;14.20;99.90
26537;DHT22;14204;51.262;5.488;2022-08-06T04:17:20;14.20;99.90
26537;DHT22;14204;51.262;5.488;2022-08-06T04:19:47;14.20;99.90
26537;DHT22;14204;51.262;5.488;2022-08-06T04:22:13;14.20;99.90
26537;DHT22;14204;51.262;5.488;2022-08-06T04:24:39;14.20;99.90
26537;DHT22;14204;51.262;5.488;2022-08-06T04:27:07;14.20;99.90
26537;DHT22;14204;51.262;5.488;2022-08-06T04:29:36;14.10;99.90
26537;DHT22;14204;51.262;5.488;2022-08-06T04:32:03;14.10;99.90
26537;DHT22;14204;51.262;5.488;2022-08-06T04:34:29;14.10;99.90
26537;DHT22;14204;51.262;5.488;2022-08-06T04:36:58;14.10;99.90
26537;DHT22;14204;51.262;5.488;2022-08-06T04:39:25;14.10;99.90
26537;DHT22;14204;51.262;5.488;2022-08-06T04:41:52;14.00;99.90
26537;DHT22;14204;51.262;5.488;2022-08-06T04:44:18;14.10;99.90
26537;DHT22;14204;51.262;5.488;2022-08-06T04:46:44;14.00;99.90
26537;DHT22;14204;51.262;5.488;2022-08-06T04:49:15;14.10;99.90
26537;DHT22;14204;51.262;5.488;2022-08-06T04:51:44;14.10;99.90
26537;DHT22;14204;51.262;5.488;2022-08-06T04:54:09;14.10;99.90
26537;DHT22;14204;51.262;5.488;2022-08-06T04:56:35;14.10;99.90
26537;DHT22;14204;51.262;5.488;2022-08-06T04:59:01;14.00;99.90
26537;DHT22;14204;51.262;5.488;2022-08-06T05:01:26;14.10;99.90
26537;DHT22;14204;51.262;5.488;2022-08-06T05:03:52;14.00;99.90
26537;DHT22;14204;51.262;5.488;2022-08-06T05:09:11;14.10;99.90
26537;DHT22;14204;51.262;5.488;2022-08-06T05:11:46;14.00;99.90
26537;DHT22;14204;51.262;5.488;2022-08-06T05:14:20;14.10;99.90
26537;DHT22;14204;51.262;5.488;2022-08-06T05:16:49;14.10;99.90
26537;DHT22;14204;51.262;5.488;2022-08-06T05:19:44;14.10;99.90
26537;DHT22;14204;51.262;5.488;2022-08-06T05:22:14;14.10;99.90
26537;DHT22;14204;51.262;5.488;2022-08-06T05:24:41;14.10;99.90
26537;DHT22;14204;51.262;5.488;2022-08-06T05:27:09;14.10;99.90
26537;DHT22;14204;51.262;5.488;2022-08-06T05:29:34;14.10;99.90
26537;DHT22;14204;51.262;5.488;2022-08-06T05:32:00;14.10;99.90
26537;DHT22;14204;51.262;5.488;2022-08-06T05:34:27;14.10;99.90
26537;DHT22;14204;51.262;5.488;2022-08-06T05:36:52;14.20;99.90
26537;DHT22;14204;51.262;5.488;2022-08-06T05:39:18;14.20;99.90
26537;DHT22;14204;51.262;5.488;2022-08-06T05:41:45;14.20;99.90
26537;DHT22;14204;51.262;5.488;2022-08-06T05:44:11;14.30;99.90
26537;DHT22;14204;51.262;5.488;2022-08-06T05:46:42;14.30;99.90
26537;DHT22;14204;51.262;5.488;2022-08-06T05:49:18;14.30;99.90
26537;DHT22;14204;51.262;5.488;2022-08-06T05:52:00;14.40;99.90
26537;DHT22;14204;51.262;5.488;2022-08-06T05:54:35;14.40;99.90
26537;DHT22;14204;51.262;5.488;2022-08-06T05:57:24;14.50;99.90
26537;DHT22;14204;51.262;5.488;2022-08-06T05:59:56;14.50;99.90
26537;DHT22;14204;51.262;5.488;2022-08-06T06:02:24;14.60;99.90
26537;DHT22;14204;51.262;5.488;2022-08-06T06:04:51;14.60;99.90
26537;DHT22;14204;51.262;5.488;2022-08-06T06:07:17;14.60;99.90
26537;DHT22;14204;51.262;5.488;2022-08-06T06:09:44;14.60;99.90
26537;DHT22;14204;51.262;5.488;2022-08-06T06:12:10;14.70;99.90
26537;DHT22;14204;51.262;5.488;2022-08-06T06:14:40;14.70;99.90
26537;DHT22;14204;51.262;5.488;2022-08-06T06:19:46;14.80;99.90
26537;DHT22;14204;51.262;5.488;2022-08-06T06:24:57;14.80;99.90
26537;DHT22;14204;51.262;5.488;2022-08-06T06:27:35;14.90;99.90
26537;DHT22;14204;51.262;5.488;2022-08-06T06:30:07;14.90;99.90
26537;DHT22;14204;51.262;5.488;2022-08-06T06:38:13;15.10;99.90
26537;DHT22;14204;51.262;5.488;2022-08-06T06:41:16;15.20;99.90
26537;DHT22;14204;51.262;5.488;2022-08-06T06:48:54;15.40;99.90
26537;DHT22;14204;51.262;5.488;2022-08-06T06:51:36;15.40;99.90
26537;DHT22;14204;51.262;5.488;2022-08-06T06:54:05;15.50;99.90
26537;DHT22;14204;51.262;5.488;2022-08-06T06:56:41;15.50;99.90
26537;DHT22;14204;51.262;5.488;2022-08-06T06:59:13;15.70;99.90
26537;DHT22;14204;51.262;5.488;2022-08-06T07:01:40;15.70;99.90
26537;DHT22;14204;51.262;5.488;2022-08-06T07:04:10;15.70;99.90
26537;DHT22;14204;51.262;5.488;2022-08-06T07:06:37;15.80;99.90
26537;DHT22;14204;51.262;5.488;2022-08-06T07:09:04;15.90;99.90
26537;DHT22;14204;51.262;5.488;2022-08-06T07:11:30;16.10;99.90
26537;DHT22;14204;51.262;5.488;2022-08-06T07:13:58;16.10;99.90
26537;DHT22;14204;51.262;5.488;2022-08-06T07:16:26;16.20;99.90
26537;DHT22;14204;51.262;5.488;2022-08-06T07:18:52;16.30;99.90
26537;DHT22;14204;51.262;5.488;2022-08-06T07:21:20;16.40;99.90
26537;DHT22;14204;51.262;5.488;2022-08-06T07:23:49;16.50;99.90
26537;DHT22;14204;51.262;5.488;2022-08-06T07:26:18;16.60;99.90
26537;DHT22;14204;51.262;5.488;2022-08-06T07:28:45;16.70;99.90
26537;DHT22;14204;51.262;5.488;2022-08-06T07:31:12;16.90;99.90
26537;DHT22;14204;51.262;5.488;2022-08-06T07:33:40;16.90;99.90
26537;DHT22;14204;51.262;5.488;2022-08-06T07:36:07;17.10;99.90
26537;DHT22;14204;51.262;5.488;2022-08-06T07:38:35;17.10;99.90
26537;DHT22;14204;51.262;5.488;2022-08-06T07:41:04;17.20;99.90
26537;DHT22;14204;51.262;5.488;2022-08-06T07:43:34;17.30;99.90
26537;DHT22;14204;51.262;5.488;2022-08-06T07:46:02;17.50;99.90
26537;DHT22;14204;51.262;5.488;2022-08-06T07:48:37;17.60;99.90
26537;DHT22;14204;51.262;5.488;2022-08-06T07:51:05;17.80;99.90
26537;DHT22;14204;51.262;5.488;2022-08-06T07:53:35;17.90;99.90
26537;DHT22;14204;51.262;5.488;2022-08-06T07:56:06;18.00;99.90
26537;DHT22;14204;51.262;5.488;2022-08-06T07:58:33;18.10;99.90
26537;DHT22;14204;51.262;5.488;2022-08-06T08:01:01;18.30;99.90
26537;DHT22;14204;51.262;5.488;2022-08-06T08:03:28;18.30;99.90
26537;DHT22;14204;51.262;5.488;2022-08-06T08:06:14;18.60;99.90
26537;DHT22;14204;51.262;5.488;2022-08-06T08:08:51;18.80;99.90
26537;DHT22;14204;51.262;5.488;2022-08-06T08:11:18;18.80;99.90
26537;DHT22;14204;51.262;5.488;2022-08-06T08:13:44;18.90;99.90
26537;DHT22;14204;51.262;5.488;2022-08-06T08:16:14;19.00;99.90
26537;DHT22;14204;51.262;5.488;2022-08-06T08:18:40;19.10;99.90
26537;DHT22;14204;51.262;5.488;2022-08-06T08:21:08;19.30;99.90
26537;DHT22;14204;51.262;5.488;2022-08-06T08:23:35;19.40;99.90
26537;DHT22;14204;51.262;5.488;2022-08-06T08:26:03;19.50;99.90
26537;DHT22;14204;51.262;5.488;2022-08-06T08:28:29;19.50;99.90
26537;DHT22;14204;51.262;5.488;2022-08-06T08:30:56;19.40;99.90
26537;DHT22;14204;51.262;5.488;2022-08-06T08:33:24;19.30;99.90
26537;DHT22;14204;51.262;5.488;2022-08-06T08:35:50;19.30;99.90
26537;DHT22;14204;51.262;5.488;2022-08-06T08:38:17;19.30;99.90
26537;DHT22;14204;51.262;5.488;2022-08-06T08:40:43;19.40;99.90
26537;DHT22;14204;51.262;5.488;2022-08-06T08:43:12;19.70;99.90
26537;DHT22;14204;51.262;5.488;2022-08-06T08:45:39;19.90;99.90
26537;DHT22;14204;51.262;5.488;2022-08-06T08:48:11;20.00;99.90
26537;DHT22;14204;51.262;5.488;2022-08-06T08:50:40;20.10;99.90
26537;DHT22;14204;51.262;5.488;2022-08-06T08:53:13;20.20;99.90
26537;DHT22;14204;51.262;5.488;2022-08-06T08:55:40;20.10;99.90
26537;DHT22;14204;51.262;5.488;2022-08-06T08:58:06;20.30;99.90
26537;DHT22;14204;51.262;5.488;2022-08-06T09:00:33;20.50;99.90
26537;DHT22;14204;51.262;5.488;2022-08-06T09:02:58;20.50;99.90
26537;DHT22;14204;51.262;5.488;2022-08-06T09:05:25;20.50;99.90
26537;DHT22;14204;51.262;5.488;2022-08-06T09:07:52;20.70;99.90
26537;DHT22;14204;51.262;5.488;2022-08-06T09:10:17;20.80;99.90
26537;DHT22;14204;51.262;5.488;2022-08-06T09:12:43;20.70;99.90
26537;DHT22;14204;51.262;5.488;2022-08-06T09:15:09;20.70;99.90
26537;DHT22;14204;51.262;5.488;2022-08-06T09:17:35;20.70;99.90
26537;DHT22;14204;51.262;5.488;2022-08-06T09:20:03;20.70;99.90
26537;DHT22;14204;51.262;5.488;2022-08-06T09:22:29;20.90;99.90
26537;DHT22;14204;51.262;5.488;2022-08-06T09:24:54;21.00;99.90
26537;DHT22;14204;51.262;5.488;2022-08-06T09:27:20;21.20;99.90
26537;DHT22;14204;51.262;5.488;2022-08-06T09:29:57;21.10;99.90
26537;DHT22;14204;51.262;5.488;2022-08-06T09:43:29;21.50;99.90
26537;DHT22;14204;51.262;5.488;2022-08-06T09:45:54;21.70;97.80
26537;DHT22;14204;51.262;5.488;2022-08-06T09:48:20;21.70;96.80
26537;DHT22;14204;51.262;5.488;2022-08-06T09:50:46;21.70;98.10
26537;DHT22;14204;51.262;5.488;2022-08-06T09:53:13;21.90;95.70
26537;DHT22;14204;51.262;5.488;2022-08-06T09:55:39;22.10;96.80
26537;DHT22;14204;51.262;5.488;2022-08-06T09:58:06;22.50;96.80
26537;DHT22;14204;51.262;5.488;2022-08-06T10:00:33;22.50;96.50
26537;DHT22;14204;51.262;5.488;2022-08-06T10:03:04;22.50;97.30
26537;DHT22;14204;51.262;5.488;2022-08-06T10:05:31;22.80;97.90
26537;DHT22;14204;51.262;5.488;2022-08-06T10:08:09;22.70;96.80
26537;DHT22;14204;51.262;5.488;2022-08-06T10:10:47;22.90;97.50
26537;DHT22;14204;51.262;5.488;2022-08-06T10:13:25;23.20;99.10
26537;DHT22;14204;51.262;5.488;2022-08-06T10:15:54;23.30;96.80
26537;DHT22;14204;51.262;5.488;2022-08-06T10:18:30;23.40;96.70
26537;DHT22;14204;51.262;5.488;2022-08-06T10:21:02;23.40;96.50
26537;DHT22;14204;51.262;5.488;2022-08-06T10:23:31;23.30;97.60
26537;DHT22;14204;51.262;5.488;2022-08-06T10:25:58;23.40;96.40
26537;DHT22;14204;51.262;5.488;2022-08-06T10:28:26;23.40;95.20
26537;DHT22;14204;51.262;5.488;2022-08-06T10:30:54;23.40;95.50
26537;DHT22;14204;51.262;5.488;2022-08-06T10:33:20;23.60;94.30
26537;DHT22;14204;51.262;5.488;2022-08-06T10:35:48;23.40;94.70
26537;DHT22;14204;51.262;5.488;2022-08-06T10:38:20;23.10;94.90
26537;DHT22;14204;51.262;5.488;2022-08-06T10:40:49;23.00;95.20
26537;DHT22;14204;51.262;5.488;2022-08-06T10:43:17;22.90;95.70
26537;DHT22;14204;51.262;5.488;2022-08-06T10:45:44;22.70;95.40
26537;DHT22;14204;51.262;5.488;2022-08-06T10:48:10;22.40;96.20
26537;DHT22;14204;51.262;5.488;2022-08-06T10:50:38;22.40;98.10
26537;DHT22;14204;51.262;5.488;2022-08-06T10:53:04;22.60;97.50
26537;DHT22;14204;51.262;5.488;2022-08-06T10:55:32;23.00;97.10
26537;DHT22;14204;51.262;5.488;2022-08-06T10:57:58;22.80;96.20
26537;DHT22;14204;51.262;5.488;2022-08-06T11:00:25;22.70;94.90
26537;DHT22;14204;51.262;5.488;2022-08-06T11:02:59;23.00;95.20
26537;DHT22;14204;51.262;5.488;2022-08-06T11:05:37;23.20;94.90
26537;DHT22;14204;51.262;5.488;2022-08-06T11:10:47;23.60;94.40
26537;DHT22;14204;51.262;5.488;2022-08-06T11:15:52;23.40;94.50
26537;DHT22;14204;51.262;5.488;2022-08-06T11:18:18;23.30;94.80
26537;DHT22;14204;51.262;5.488;2022-08-06T11:20:45;23.10;94.00
26537;DHT22;14204;51.262;5.488;2022-08-06T11:25:42;23.30;93.10
26537;DHT22;14204;51.262;5.488;2022-08-06T11:28:13;23.50;93.70
26537;DHT22;14204;51.262;5.488;2022-08-06T11:30:43;23.50;93.30
26537;DHT22;14204;51.262;5.488;2022-08-06T11:33:11;23.90;91.10
26537;DHT22;14204;51.262;5.488;2022-08-06T11:35:39;24.20;91.00
26537;DHT22;14204;51.262;5.488;2022-08-06T11:38:10;24.20;92.00
26537;DHT22;14204;51.262;5.488;2022-08-06T11:46:26;23.60;91.80
26537;DHT22;14204;51.262;5.488;2022-08-06T12:02:07;24.20;91.60
26537;DHT22;14204;51.262;5.488;2022-08-06T12:07:22;24.10;91.80
26537;DHT22;14204;51.262;5.488;2022-08-06T12:10:02;23.80;91.00
26537;DHT22;14204;51.262;5.488;2022-08-06T12:17:27;23.60;95.50
26537;DHT22;14204;51.262;5.488;2022-08-06T12:19:55;23.60;94.50
26537;DHT22;14204;51.262;5.488;2022-08-06T12:22:22;24.10;92.90
26537;DHT22;14204;51.262;5.488;2022-08-06T12:24:56;24.40;90.10
26537;DHT22;14204;51.262;5.488;2022-08-06T12:27:30;24.50;91.00
26537;DHT22;14204;51.262;5.488;2022-08-06T12:29:58;24.90;91.40
26537;DHT22;14204;51.262;5.488;2022-08-06T12:32:25;24.80;91.40
26537;DHT22;14204;51.262;5.488;2022-08-06T12:34:53;24.50;90.80
26537;DHT22;14204;51.262;5.488;2022-08-06T12:37:19;24.50;91.90
26537;DHT22;14204;51.262;5.488;2022-08-06T12:39:46;24.30;92.30
26537;DHT22;14204;51.262;5.488;2022-08-06T12:42:32;24.00;92.00
26537;DHT22;14204;51.262;5.488;2022-08-06T12:44:58;24.20;92.70
26537;DHT22;14204;51.262;5.488;2022-08-06T12:47:24;24.50;93.60
26537;DHT22;14204;51.262;5.488;2022-08-06T12:49:52;25.00;93.70
26537;DHT22;14204;51.262;5.488;2022-08-06T12:52:20;25.30;91.40
26537;DHT22;14204;51.262;5.488;2022-08-06T12:54:47;25.10;89.70
26537;DHT22;14204;51.262;5.488;2022-08-06T12:57:23;24.80;87.00
26537;DHT22;14204;51.262;5.488;2022-08-06T12:59:50;24.40;86.70
26537;DHT22;14204;51.262;5.488;2022-08-06T13:02:19;24.00;90.50
26537;DHT22;14204;51.262;5.488;2022-08-06T13:04:51;23.90;92.00
26537;DHT22;14204;51.262;5.488;2022-08-06T13:07:18;23.70;92.60
26537;DHT22;14204;51.262;5.488;2022-08-06T13:09:46;24.00;92.40
26537;DHT22;14204;51.262;5.488;2022-08-06T13:12:17;24.40;92.40
26537;DHT22;14204;51.262;5.488;2022-08-06T13:14:52;24.50;90.70
26537;DHT22;14204;51.262;5.488;2022-08-06T13:17:25;24.20;91.70
26537;DHT22;14204;51.262;5.488;2022-08-06T13:19:56;24.10;91.20
26537;DHT22;14204;51.262;5.488;2022-08-06T13:22:24;24.20;93.00
26537;DHT22;14204;51.262;5.488;2022-08-06T13:25:09;24.40;91.70
26537;DHT22;14204;51.262;5.488;2022-08-06T13:27:35;24.20;92.00
26537;DHT22;14204;51.262;5.488;2022-08-06T13:30:06;23.90;91.60
26537;DHT22;14204;51.262;5.488;2022-08-06T13:32:32;24.00;92.40
26537;DHT22;14204;51.262;5.488;2022-08-06T13:35:00;24.20;93.80
26537;DHT22;14204;51.262;5.488;2022-08-06T13:40:12;24.90;87.00
26537;DHT22;14204;51.262;5.488;2022-08-06T13:42:57;24.80;84.50
26537;DHT22;14204;51.262;5.488;2022-08-06T13:45:27;24.50;88.60
26537;DHT22;14204;51.262;5.488;2022-08-06T13:48:10;24.20;90.70
26537;DHT22;14204;51.262;5.488;2022-08-06T13:50:43;24.00;92.10
26537;DHT22;14204;51.262;5.488;2022-08-06T13:53:11;23.60;92.70
26537;DHT22;14204;51.262;5.488;2022-08-06T13:55:38;23.60;91.90
26537;DHT22;14204;51.262;5.488;2022-08-06T13:58:04;23.50;92.10
26537;DHT22;14204;51.262;5.488;2022-08-06T14:00:30;23.70;94.00
26537;DHT22;14204;51.262;5.488;2022-08-06T14:02:58;24.10;92.20
26537;DHT22;14204;51.262;5.488;2022-08-06T14:05:23;24.40;91.20
26537;DHT22;14204;51.262;5.488;2022-08-06T14:07:50;24.50;89.70
26537;DHT22;14204;51.262;5.488;2022-08-06T14:10:16;24.60;90.70
26537;DHT22;14204;51.262;5.488;2022-08-06T14:12:43;24.80;86.80
26537;DHT22;14204;51.262;5.488;2022-08-06T14:15:30;24.50;89.00
26537;DHT22;14204;51.262;5.488;2022-08-06T14:17:56;24.00;87.30
26537;DHT22;14204;51.262;5.488;2022-08-06T14:20:22;24.00;88.70
26537;DHT22;14204;51.262;5.488;2022-08-06T14:22:47;23.90;91.40
26537;DHT22;14204;51.262;5.488;2022-08-06T14:25:13;23.70;93.00
26537;DHT22;14204;51.262;5.488;2022-08-06T14:27:39;23.40;94.70
26537;DHT22;14204;51.262;5.488;2022-08-06T14:30:05;23.50;93.50
26537;DHT22;14204;51.262;5.488;2022-08-06T14:32:31;23.50;93.90
26537;DHT22;14204;51.262;5.488;2022-08-06T14:34:57;23.60;94.30
26537;DHT22;14204;51.262;5.488;2022-08-06T14:37:22;23.60;94.10
26537;DHT22;14204;51.262;5.488;2022-08-06T14:39:48;23.70;93.50
26537;DHT22;14204;51.262;5.488;2022-08-06T14:42:13;24.00;93.50
26537;DHT22;14204;51.262;5.488;2022-08-06T14:44:58;24.10;92.70
26537;DHT22;14204;51.262;5.488;2022-08-06T14:47:25;24.20;90.90
26537;DHT22;14204;51.262;5.488;2022-08-06T14:49:51;24.20;90.20
26537;DHT22;14204;51.262;5.488;2022-08-06T14:52:17;24.50;84.20
26537;DHT22;14204;51.262;5.488;2022-08-06T14:54:42;24.60;83.40
26537;DHT22;14204;51.262;5.488;2022-08-06T14:57:10;24.50;82.90
26537;DHT22;14204;51.262;5.488;2022-08-06T14:59:36;24.60;82.30
26537;DHT22;14204;51.262;5.488;2022-08-06T15:02:03;24.60;86.70
26537;DHT22;14204;51.262;5.488;2022-08-06T15:04:29;24.60;86.40
26537;DHT22;14204;51.262;5.488;2022-08-06T15:06:55;24.60;90.10
26537;DHT22;14204;51.262;5.488;2022-08-06T15:09:22;24.70;91.10
26537;DHT22;14204;51.262;5.488;2022-08-06T15:11:49;25.00;87.00
26537;DHT22;14204;51.262;5.488;2022-08-06T15:14:14;24.90;86.60
26537;DHT22;14204;51.262;5.488;2022-08-06T15:16:40;24.80;88.50
26537;DHT22;14204;51.262;5.488;2022-08-06T15:19:06;24.60;90.20
26537;DHT22;14204;51.262;5.488;2022-08-06T15:21:32;24.30;89.80
26537;DHT22;14204;51.262;5.488;2022-08-06T15:23:58;24.30;89.80
26537;DHT22;14204;51.262;5.488;2022-08-06T15:26:25;24.20;90.90
26537;DHT22;14204;51.262;5.488;2022-08-06T15:28:51;23.90;92.50
26537;DHT22;14204;51.262;5.488;2022-08-06T15:31:17;23.90;91.30
26537;DHT22;14204;51.262;5.488;2022-08-06T15:33:44;23.90;91.40
26537;DHT22;14204;51.262;5.488;2022-08-06T15:36:10;23.80;91.60
26537;DHT22;14204;51.262;5.488;2022-08-06T15:38:36;23.90;92.00
26537;DHT22;14204;51.262;5.488;2022-08-06T15:41:03;24.00;90.60
26537;DHT22;14204;51.262;5.488;2022-08-06T15:43:29;23.90;91.20
26537;DHT22;14204;51.262;5.488;2022-08-06T15:45:56;23.80;91.30
26537;DHT22;14204;51.262;5.488;2022-08-06T15:48:25;23.70;92.00
26537;DHT22;14204;51.262;5.488;2022-08-06T15:50:51;23.80;92.50
26537;DHT22;14204;51.262;5.488;2022-08-06T15:53:18;23.70;92.40
26537;DHT22;14204;51.262;5.488;2022-08-06T15:55:45;23.80;92.60
26537;DHT22;14204;51.262;5.488;2022-08-06T15:58:11;23.70;92.40
26537;DHT22;14204;51.262;5.488;2022-08-06T16:00:39;23.70;90.30
26537;DHT22;14204;51.262;5.488;2022-08-06T16:03:07;23.70;91.70
26537;DHT22;14204;51.262;5.488;2022-08-06T16:05:38;23.60;92.20
26537;DHT22;14204;51.262;5.488;2022-08-06T16:08:05;23.60;92.40
26537;DHT22;14204;51.262;5.488;2022-08-06T16:14:29;24.00;90.90
26537;DHT22;14204;51.262;5.488;2022-08-06T16:20:18;24.10;90.10
26537;DHT22;14204;51.262;5.488;2022-08-06T16:26:06;24.10;86.10
26537;DHT22;14204;51.262;5.488;2022-08-06T16:31:18;23.60;91.80
26537;DHT22;14204;51.262;5.488;2022-08-06T16:33:44;23.60;91.50
26537;DHT22;14204;51.262;5.488;2022-08-06T16:36:10;23.50;91.80
26537;DHT22;14204;51.262;5.488;2022-08-06T16:38:36;23.50;92.50
26537;DHT22;14204;51.262;5.488;2022-08-06T16:41:01;23.40;92.40
26537;DHT22;14204;51.262;5.488;2022-08-06T16:43:27;23.50;92.80
26537;DHT22;14204;51.262;5.488;2022-08-06T16:45:53;23.50;91.40
26537;DHT22;14204;51.262;5.488;2022-08-06T16:48:18;23.50;92.10
26537;DHT22;14204;51.262;5.488;2022-08-06T16:50:44;23.60;91.70
26537;DHT22;14204;51.262;5.488;2022-08-06T16:53:10;23.40;91.00
26537;DHT22;14204;51.262;5.488;2022-08-06T16:55:36;23.40;92.30
26537;DHT22;14204;51.262;5.488;2022-08-06T16:58:02;23.40;92.10
26537;DHT22;14204;51.262;5.488;2022-08-06T17:00:35;23.40;91.80
26537;DHT22;14204;51.262;5.488;2022-08-06T17:03:02;23.40;91.90
26537;DHT22;14204;51.262;5.488;2022-08-06T17:05:29;23.40;92.60
26537;DHT22;14204;51.262;5.488;2022-08-06T17:07:57;23.40;92.50
26537;DHT22;14204;51.262;5.488;2022-08-06T17:10:24;23.40;90.80
26537;DHT22;14204;51.262;5.488;2022-08-06T17:12:50;23.30;91.50
26537;DHT22;14204;51.262;5.488;2022-08-06T17:15:16;23.20;91.70